Flight Track Log - Related Links

Times and Time Zones

All times are in EDT time to prevent confusion due to time zone crossing. See the GJS3706 flight status page for this flight to view local times or setup timezone preferences in your user account.

Time Position Orientation Groundspeed Altitude Reporting Facility
EDT Latitude Longitude Course Direction KTS MPH feet Rate Location/Type
Fri 11:09:55 AM 41.8050 -87.8969 179° South 253 291 6,800  Level Chicago Center
Fri 11:10:57 AM 41.7431 -87.8469 149° Southeast 263 303 9,800 3,024 Climbing Chicago Center
Fri 11:11:00 AM 41.6842 -87.5600 159° South  Level Estimated
Fri 11:11:58 AM 41.6778 -87.7892 147° Southeast 277 319 13,000  Level Chicago Center
Fri 11:12:00 AM 41.6096 -87.4739 153° Southeast  Level Estimated
Fri 11:13:00 AM 41.5350 -87.3879 159° South  Level Estimated
Fri 11:13:00 AM 41.6083 -87.7308 148° Southeast 290 334 14,900  Level Chicago Center
Fri 11:14:02 AM 41.5256 -87.6578 147° Southeast 350 403 15,800 968 Climbing Chicago Center
Fri 11:15:04 AM 41.4356 -87.5833 148° Southeast 374 430 16,900 1,113 Climbing Chicago Center
Fri 11:16:06 AM 41.3303 -87.5139 154° Southeast 416 479 18,100 1,548 Climbing Chicago Center
Fri 11:17:08 AM 41.1997 -87.4350 156° South 428 493 20,100 1,415 Climbing Chicago Center
Fri 11:18:09 AM 41.0881 -87.3683 156° South 435 501 21,000 439 Climbing Chicago Center
Fri 11:19:11 AM 40.9769 -87.3011 155° Southeast 438 504 21,000  Level Chicago Center
Fri 11:20:13 AM 40.8642 -87.2356 156° South 443 510 21,000  Level Chicago Center
Fri 11:21:15 AM 40.7517 -87.1672 155° Southeast 445 512 21,000  Level Chicago Center
Fri 11:22:17 AM 40.6297 -87.0942 156° South 445 512 21,000  Level Chicago Center
Fri 11:23:19 AM 40.5178 -87.0286 156° South 441 507 21,000  Level Chicago Center
Fri 11:24:21 AM 40.4061 -86.9619 156° South 442 509 21,000  Level Chicago Center
Fri 11:25:22 AM 40.2983 -86.8975 155° Southeast 428 493 21,000  Level Chicago Center
Fri 11:26:24 AM 40.1692 -86.8231 156° South 424 488 21,000  Level Chicago Center
Fri 11:27:17 AM 40.0808 -86.7708 156° South 429 494 21,000  Level Indianapolis Center
Fri 11:28:19 AM 39.9842 -86.6842 146° Southeast 432 497 21,000  Level Indianapolis Center
Fri 11:29:21 AM 39.9150 -86.5567 125° Southeast 431 496 21,000  Level Indianapolis Center
Fri 11:30:23 AM 39.8317 -86.4000 125° Southeast 438 504 21,000 -77 Level Indianapolis Center
Fri 11:30:39 AM 39.8167 -86.3667 120° Southeast 438 504 20,900 -1,862 Descending Indianapolis TRACON
Fri 11:31:21 AM 39.7833 -86.2667 113° Southeast 437 503 19,200 -2,563 Descending Indianapolis TRACON
Fri 11:32:15 AM 39.7333 -86.1333 116° Southeast 421 484 16,800 -2,318 Descending Indianapolis TRACON
Fri 11:33:33 AM 39.6833 -85.9667 111° Southeast 396 456 14,100 -1,333 Descending Indianapolis TRACON
Fri 11:34:21 AM 39.6500 -85.8667 113° Southeast 383 441 14,000 -421 Descending Indianapolis TRACON
Fri 11:35:27 AM 39.6000 -85.7333 116° Southeast 385 443 13,300 -1,038 Descending Indianapolis TRACON
Fri 11:36:34 AM 39.5550 -85.5953 113° Southeast 385 443 11,700 -1,070 Descending Indianapolis Center
Fri 11:37:36 AM 39.5119 -85.4756 115° Southeast 371 427 11,000 -339 Descending Indianapolis Center
Fri 11:38:38 AM 39.4539 -85.3689 125° Southeast 361 415 11,000 -194 Level Indianapolis Center
Fri 11:39:40 AM 39.4008 -85.2397 118° Southeast 334 384 10,600 -1,065 Descending Indianapolis Center
Fri 11:40:42 AM 39.3686 -85.1500 115° Southeast 282 325 8,800 -1,790 Descending Indianapolis Center
Fri 11:41:44 AM 39.3344 -85.0583 116° Southeast 282 325 6,900 -1,790 Descending Indianapolis Center
Fri 11:42:46 AM 39.3039 -84.9686 114° Southeast 277 319 5,100 -968 Descending Indianapolis Center
Fri 11:43:48 AM 39.2783 -84.8789 110° East 270 311 4,900 -55 Descending Indianapolis Center
Fri 11:44:35 AM 39.2500 -84.7833 111° Southeast 276 318 5,000 -594 Climbing Cincinnati TRACON
Fri 11:45:29 AM 39.2333 -84.7167 108° East 265 305 3,900 -1,316 Descending Cincinnati TRACON
Fri 11:46:29 AM 39.1833 -84.6667 142° Southeast 243 280 2,500 -1,400 Descending Cincinnati TRACON

Login

Don't have an account? Register now (free) for customized features, flight alerts, and more!